<?xml version="1.0" encoding="UTF-8" standalone="no" ?>
<gpx xmlns="http://www.topografix.com/GPX/1/1" xmlns:xsi="http://www.w3.org/2001/XMLSchema-instance" xsi:schemaLocation="http://www.topografix.com/GPX/1/1 http://www.topografix.com/GPX/1/1/gpx.xsd" version="1.1" creator="VisuGPX - https://www.visugpx.com">
  <metadata>
    <name>champ de tir 22200</name>
    <desc><![CDATA[ballade sur un morceau du champ de tir à plouisy]]></desc>
  </metadata>
  <wpt lat="48.58293" lon="-3.20663">
    <ele>218</ele>
    <name><![CDATA[Repère 1]]></name>
    <desc><![CDATA[]]></desc>
    <cmt><![CDATA[WAYPOINT]]></cmt>
    <type><![CDATA[]]></type>
  </wpt>
  <wpt lat="48.58458" lon="-3.21058">
    <ele>197.2</ele>
    <name><![CDATA[Repère 2]]></name>
    <desc><![CDATA[]]></desc>
    <cmt><![CDATA[WAYPOINT]]></cmt>
    <type><![CDATA[]]></type>
  </wpt>
  <wpt lat="48.58587" lon="-3.21227">
    <ele>224.4</ele>
    <name><![CDATA[Repère 3]]></name>
    <desc><![CDATA[]]></desc>
    <cmt><![CDATA[WAYPOINT]]></cmt>
    <type><![CDATA[]]></type>
  </wpt>
  <wpt lat="48.58587" lon="-3.21227">
    <ele>224.4</ele>
    <name><![CDATA[Repère 4]]></name>
    <desc><![CDATA[]]></desc>
    <cmt><![CDATA[WAYPOINT]]></cmt>
    <type><![CDATA[]]></type>
  </wpt>
  <wpt lat="48.58639" lon="-3.21522">
    <ele>205.9</ele>
    <name><![CDATA[Repère 5]]></name>
    <desc><![CDATA[]]></desc>
    <cmt><![CDATA[WAYPOINT]]></cmt>
    <type><![CDATA[]]></type>
  </wpt>
  <wpt lat="48.58695" lon="-3.21472">
    <ele>217.3</ele>
    <name><![CDATA[Repère 6]]></name>
    <desc><![CDATA[]]></desc>
    <cmt><![CDATA[WAYPOINT]]></cmt>
    <type><![CDATA[]]></type>
  </wpt>
  <wpt lat="48.58873" lon="-3.21219">
    <ele>195</ele>
    <name><![CDATA[Repère 7]]></name>
    <desc><![CDATA[]]></desc>
    <cmt><![CDATA[WAYPOINT]]></cmt>
    <type><![CDATA[]]></type>
  </wpt>
  <wpt lat="48.5825" lon="-3.20586">
    <ele>216.3</ele>
    <name><![CDATA[Repère 8]]></name>
    <desc><![CDATA[]]></desc>
    <cmt><![CDATA[WAYPOINT]]></cmt>
    <type><![CDATA[]]></type>
  </wpt>
  <trk>
    <name><![CDATA[Champ De Tir]]></name>
    <desc><![CDATA[]]></desc>
    <trkseg>
      <trkpt lat="48.58299" lon="-3.20654">
        <ele>207.6</ele>
        <time>2014-02-24T13:10:28.535Z</time>
      </trkpt>
      <trkpt lat="48.58293" lon="-3.20661">
        <ele>216.5</ele>
        <time>2014-02-24T13:10:43.774Z</time>
      </trkpt>
      <trkpt lat="48.58293" lon="-3.20663">
        <ele>218</ele>
        <time>2014-02-24T13:10:45.173Z</time>
      </trkpt>
      <trkpt lat="48.58295" lon="-3.20677">
        <ele>218.2</ele>
        <time>2014-02-24T13:11:31.396Z</time>
      </trkpt>
      <trkpt lat="48.58297" lon="-3.20679">
        <ele>217.4</ele>
        <time>2014-02-24T13:11:33.012Z</time>
      </trkpt>
      <trkpt lat="48.58303" lon="-3.20686">
        <ele>208.9</ele>
        <time>2014-02-24T13:11:42.099Z</time>
      </trkpt>
      <trkpt lat="48.58304" lon="-3.2069">
        <ele>208</ele>
        <time>2014-02-24T13:11:44.222Z</time>
      </trkpt>
      <trkpt lat="48.5831" lon="-3.207">
        <ele>208.2</ele>
        <time>2014-02-24T13:11:50.112Z</time>
      </trkpt>
      <trkpt lat="48.5831" lon="-3.20702">
        <ele>208.4</ele>
        <time>2014-02-24T13:11:51.247Z</time>
      </trkpt>
      <trkpt lat="48.58311" lon="-3.20714">
        <ele>205.9</ele>
        <time>2014-02-24T13:12:00.758Z</time>
      </trkpt>
      <trkpt lat="48.58311" lon="-3.20718">
        <ele>206.9</ele>
        <time>2014-02-24T13:12:01.263Z</time>
      </trkpt>
      <trkpt lat="48.58313" lon="-3.2073">
        <ele>207.5</ele>
        <time>2014-02-24T13:12:07.057Z</time>
      </trkpt>
      <trkpt lat="48.58314" lon="-3.20731">
        <ele>207</ele>
        <time>2014-02-24T13:12:08.158Z</time>
      </trkpt>
      <trkpt lat="48.58316" lon="-3.20744">
        <ele>208.7</ele>
        <time>2014-02-24T13:12:15.169Z</time>
      </trkpt>
      <trkpt lat="48.58316" lon="-3.20746">
        <ele>209.3</ele>
        <time>2014-02-24T13:12:16.086Z</time>
      </trkpt>
      <trkpt lat="48.58319" lon="-3.20756">
        <ele>212.8</ele>
        <time>2014-02-24T13:12:25.056Z</time>
      </trkpt>
      <trkpt lat="48.5832" lon="-3.20759">
        <ele>212</ele>
        <time>2014-02-24T13:12:26.090Z</time>
      </trkpt>
      <trkpt lat="48.58322" lon="-3.20772">
        <ele>216.2</ele>
        <time>2014-02-24T13:12:34.072Z</time>
      </trkpt>
      <trkpt lat="48.58322" lon="-3.20773">
        <ele>216.2</ele>
        <time>2014-02-24T13:12:35.109Z</time>
      </trkpt>
      <trkpt lat="48.58325" lon="-3.20783">
        <ele>218.1</ele>
        <time>2014-02-24T13:12:40.930Z</time>
      </trkpt>
      <trkpt lat="48.58326" lon="-3.20785">
        <ele>218.4</ele>
        <time>2014-02-24T13:12:42.061Z</time>
      </trkpt>
      <trkpt lat="48.58331" lon="-3.20795">
        <ele>220.2</ele>
        <time>2014-02-24T13:12:50.056Z</time>
      </trkpt>
      <trkpt lat="48.58331" lon="-3.20796">
        <ele>220.2</ele>
        <time>2014-02-24T13:12:51.598Z</time>
      </trkpt>
      <trkpt lat="48.58338" lon="-3.208">
        <ele>215</ele>
        <time>2014-02-24T13:12:56.068Z</time>
      </trkpt>
      <trkpt lat="48.5834" lon="-3.20802">
        <ele>214.1</ele>
        <time>2014-02-24T13:12:56.974Z</time>
      </trkpt>
      <trkpt lat="48.58346" lon="-3.20811">
        <ele>207.5</ele>
        <time>2014-02-24T13:13:03.055Z</time>
      </trkpt>
      <trkpt lat="48.58345" lon="-3.20814">
        <ele>210.2</ele>
        <time>2014-02-24T13:13:04.189Z</time>
      </trkpt>
      <trkpt lat="48.58347" lon="-3.20826">
        <ele>208.4</ele>
        <time>2014-02-24T13:13:10.260Z</time>
      </trkpt>
      <trkpt lat="48.58348" lon="-3.20826">
        <ele>207.4</ele>
        <time>2014-02-24T13:13:11.130Z</time>
      </trkpt>
      <trkpt lat="48.58355" lon="-3.20835">
        <ele>204.8</ele>
        <time>2014-02-24T13:13:18.089Z</time>
      </trkpt>
      <trkpt lat="48.58355" lon="-3.20835">
        <ele>205</ele>
        <time>2014-02-24T13:13:19.044Z</time>
      </trkpt>
      <trkpt lat="48.58361" lon="-3.20845">
        <ele>202.9</ele>
        <time>2014-02-24T13:13:35.053Z</time>
      </trkpt>
      <trkpt lat="48.58362" lon="-3.20848">
        <ele>202.6</ele>
        <time>2014-02-24T13:13:36.128Z</time>
      </trkpt>
      <trkpt lat="48.58366" lon="-3.20858">
        <ele>205.7</ele>
        <time>2014-02-24T13:13:43.013Z</time>
      </trkpt>
      <trkpt lat="48.58367" lon="-3.20859">
        <ele>205.2</ele>
        <time>2014-02-24T13:13:44.029Z</time>
      </trkpt>
      <trkpt lat="48.58375" lon="-3.20864">
        <ele>196</ele>
        <time>2014-02-24T13:13:49.081Z</time>
      </trkpt>
      <trkpt lat="48.58376" lon="-3.20867">
        <ele>196.9</ele>
        <time>2014-02-24T13:13:49.932Z</time>
      </trkpt>
      <trkpt lat="48.5838" lon="-3.20877">
        <ele>195</ele>
        <time>2014-02-24T13:13:55.284Z</time>
      </trkpt>
      <trkpt lat="48.58381" lon="-3.20879">
        <ele>195.3</ele>
        <time>2014-02-24T13:13:56.009Z</time>
      </trkpt>
      <trkpt lat="48.58385" lon="-3.20889">
        <ele>196</ele>
        <time>2014-02-24T13:14:02.014Z</time>
      </trkpt>
      <trkpt lat="48.58386" lon="-3.2089">
        <ele>195</ele>
        <time>2014-02-24T13:14:03.220Z</time>
      </trkpt>
      <trkpt lat="48.58391" lon="-3.20901">
        <ele>191.3</ele>
        <time>2014-02-24T13:14:09.120Z</time>
      </trkpt>
      <trkpt lat="48.58392" lon="-3.20904">
        <ele>190.4</ele>
        <time>2014-02-24T13:14:10.026Z</time>
      </trkpt>
      <trkpt lat="48.58395" lon="-3.20915">
        <ele>192.9</ele>
        <time>2014-02-24T13:14:15.945Z</time>
      </trkpt>
      <trkpt lat="48.58396" lon="-3.20917">
        <ele>193.1</ele>
        <time>2014-02-24T13:14:17.244Z</time>
      </trkpt>
      <trkpt lat="48.58398" lon="-3.20929">
        <ele>195.6</ele>
        <time>2014-02-24T13:14:22.026Z</time>
      </trkpt>
      <trkpt lat="48.584" lon="-3.20932">
        <ele>196.2</ele>
        <time>2014-02-24T13:14:23.079Z</time>
      </trkpt>
      <trkpt lat="48.58404" lon="-3.20941">
        <ele>196.9</ele>
        <time>2014-02-24T13:14:27.114Z</time>
      </trkpt>
      <trkpt lat="48.58405" lon="-3.20943">
        <ele>196.5</ele>
        <time>2014-02-24T13:14:28.062Z</time>
      </trkpt>
      <trkpt lat="48.58409" lon="-3.20954">
        <ele>193.7</ele>
        <time>2014-02-24T13:14:34.990Z</time>
      </trkpt>
      <trkpt lat="48.58409" lon="-3.20956">
        <ele>193.4</ele>
        <time>2014-02-24T13:14:35.995Z</time>
      </trkpt>
      <trkpt lat="48.58412" lon="-3.20967">
        <ele>198.2</ele>
        <time>2014-02-24T13:14:46.030Z</time>
      </trkpt>
      <trkpt lat="48.58415" lon="-3.2097">
        <ele>195.1</ele>
        <time>2014-02-24T13:14:47.119Z</time>
      </trkpt>
      <trkpt lat="48.58419" lon="-3.2098">
        <ele>195.1</ele>
        <time>2014-02-24T13:14:53.038Z</time>
      </trkpt>
      <trkpt lat="48.5842" lon="-3.20982">
        <ele>196.1</ele>
        <time>2014-02-24T13:14:54.083Z</time>
      </trkpt>
      <trkpt lat="48.58424" lon="-3.20992">
        <ele>196.3</ele>
        <time>2014-02-24T13:15:02.106Z</time>
      </trkpt>
      <trkpt lat="48.58425" lon="-3.20994">
        <ele>196.8</ele>
        <time>2014-02-24T13:15:03.071Z</time>
      </trkpt>
      <trkpt lat="48.58429" lon="-3.21004">
        <ele>198.4</ele>
        <time>2014-02-24T13:15:09.026Z</time>
      </trkpt>
      <trkpt lat="48.58429" lon="-3.21006">
        <ele>199.5</ele>
        <time>2014-02-24T13:15:10.169Z</time>
      </trkpt>
      <trkpt lat="48.58434" lon="-3.21016">
        <ele>200</ele>
        <time>2014-02-24T13:15:22.082Z</time>
      </trkpt>
      <trkpt lat="48.58435" lon="-3.21018">
        <ele>199.8</ele>
        <time>2014-02-24T13:15:22.980Z</time>
      </trkpt>
      <trkpt lat="48.58438" lon="-3.21022">
        <ele>198.5</ele>
        <time>2014-02-24T13:15:27.178Z</time>
      </trkpt>
      <trkpt lat="48.5844" lon="-3.21029">
        <ele>198.6</ele>
        <time>2014-02-24T13:15:30.213Z</time>
      </trkpt>
      <trkpt lat="48.58443" lon="-3.2104">
        <ele>198.9</ele>
        <time>2014-02-24T13:15:35.859Z</time>
      </trkpt>
      <trkpt lat="48.58444" lon="-3.21042">
        <ele>198.9</ele>
        <time>2014-02-24T13:15:37.337Z</time>
      </trkpt>
      <trkpt lat="48.58447" lon="-3.21053">
        <ele>199.9</ele>
        <time>2014-02-24T13:15:43.234Z</time>
      </trkpt>
      <trkpt lat="48.58448" lon="-3.21056">
        <ele>199.2</ele>
        <time>2014-02-24T13:15:44.267Z</time>
      </trkpt>
      <trkpt lat="48.58456" lon="-3.21056">
        <ele>197.9</ele>
        <time>2014-02-24T13:15:49.670Z</time>
      </trkpt>
      <trkpt lat="48.58458" lon="-3.21058">
        <ele>197.2</ele>
        <time>2014-02-24T13:15:53.661Z</time>
      </trkpt>
      <trkpt lat="48.58454" lon="-3.21069">
        <ele>205.4</ele>
        <time>2014-02-24T13:16:29.312Z</time>
      </trkpt>
      <trkpt lat="48.58454" lon="-3.21072">
        <ele>207.7</ele>
        <time>2014-02-24T13:16:30.472Z</time>
      </trkpt>
      <trkpt lat="48.58456" lon="-3.21085">
        <ele>215.1</ele>
        <time>2014-02-24T13:16:40.422Z</time>
      </trkpt>
      <trkpt lat="48.58456" lon="-3.21087">
        <ele>215.9</ele>
        <time>2014-02-24T13:16:40.892Z</time>
      </trkpt>
      <trkpt lat="48.5846" lon="-3.21098">
        <ele>222</ele>
        <time>2014-02-24T13:16:50.161Z</time>
      </trkpt>
      <trkpt lat="48.58462" lon="-3.21103">
        <ele>220.1</ele>
        <time>2014-02-24T13:16:51.227Z</time>
      </trkpt>
      <trkpt lat="48.58466" lon="-3.21114">
        <ele>218.8</ele>
        <time>2014-02-24T13:16:59.046Z</time>
      </trkpt>
      <trkpt lat="48.58468" lon="-3.21115">
        <ele>218.8</ele>
        <time>2014-02-24T13:17:00.082Z</time>
      </trkpt>
      <trkpt lat="48.58471" lon="-3.21125">
        <ele>219.3</ele>
        <time>2014-02-24T13:17:06.085Z</time>
      </trkpt>
      <trkpt lat="48.58472" lon="-3.21127">
        <ele>219.2</ele>
        <time>2014-02-24T13:17:07.019Z</time>
      </trkpt>
      <trkpt lat="48.58478" lon="-3.21136">
        <ele>218.9</ele>
        <time>2014-02-24T13:17:13.004Z</time>
      </trkpt>
      <trkpt lat="48.58479" lon="-3.21139">
        <ele>218.5</ele>
        <time>2014-02-24T13:17:14.058Z</time>
      </trkpt>
      <trkpt lat="48.58485" lon="-3.21148">
        <ele>218</ele>
        <time>2014-02-24T13:17:19.985Z</time>
      </trkpt>
      <trkpt lat="48.58484" lon="-3.2115">
        <ele>218</ele>
        <time>2014-02-24T13:17:21.035Z</time>
      </trkpt>
      <trkpt lat="48.58485" lon="-3.21163">
        <ele>217.4</ele>
        <time>2014-02-24T13:17:31.029Z</time>
      </trkpt>
      <trkpt lat="48.58486" lon="-3.21166">
        <ele>216.7</ele>
        <time>2014-02-24T13:17:31.895Z</time>
      </trkpt>
      <trkpt lat="48.58487" lon="-3.21177">
        <ele>220</ele>
        <time>2014-02-24T13:17:36.060Z</time>
      </trkpt>
      <trkpt lat="48.5849" lon="-3.21179">
        <ele>217.7</ele>
        <time>2014-02-24T13:17:37.081Z</time>
      </trkpt>
      <trkpt lat="48.58496" lon="-3.21187">
        <ele>217.9</ele>
        <time>2014-02-24T13:17:43.959Z</time>
      </trkpt>
      <trkpt lat="48.58497" lon="-3.21188">
        <ele>217.9</ele>
        <time>2014-02-24T13:17:45.057Z</time>
      </trkpt>
      <trkpt lat="48.58501" lon="-3.21199">
        <ele>218.8</ele>
        <time>2014-02-24T13:17:52.019Z</time>
      </trkpt>
      <trkpt lat="48.58501" lon="-3.21201">
        <ele>218.7</ele>
        <time>2014-02-24T13:17:53.055Z</time>
      </trkpt>
      <trkpt lat="48.58506" lon="-3.21212">
        <ele>219.2</ele>
        <time>2014-02-24T13:18:01.101Z</time>
      </trkpt>
      <trkpt lat="48.58506" lon="-3.21214">
        <ele>218.9</ele>
        <time>2014-02-24T13:18:01.939Z</time>
      </trkpt>
      <trkpt lat="48.58512" lon="-3.21223">
        <ele>218.7</ele>
        <time>2014-02-24T13:18:07.051Z</time>
      </trkpt>
      <trkpt lat="48.58513" lon="-3.21226">
        <ele>218.4</ele>
        <time>2014-02-24T13:18:08.039Z</time>
      </trkpt>
      <trkpt lat="48.58516" lon="-3.21236">
        <ele>219.6</ele>
        <time>2014-02-24T13:18:24.017Z</time>
      </trkpt>
      <trkpt lat="48.58517" lon="-3.21241">
        <ele>219.3</ele>
        <time>2014-02-24T13:18:25.089Z</time>
      </trkpt>
      <trkpt lat="48.58522" lon="-3.2125">
        <ele>218.4</ele>
        <time>2014-02-24T13:18:33.025Z</time>
      </trkpt>
      <trkpt lat="48.58523" lon="-3.21251">
        <ele>218</ele>
        <time>2014-02-24T13:18:34.090Z</time>
      </trkpt>
      <trkpt lat="48.58529" lon="-3.21259">
        <ele>218</ele>
        <time>2014-02-24T13:18:38.161Z</time>
      </trkpt>
      <trkpt lat="48.5853" lon="-3.21261">
        <ele>217.6</ele>
        <time>2014-02-24T13:18:39.127Z</time>
      </trkpt>
      <trkpt lat="48.58537" lon="-3.21261">
        <ele>218.3</ele>
        <time>2014-02-24T13:18:44.056Z</time>
      </trkpt>
      <trkpt lat="48.5854" lon="-3.2126">
        <ele>217.8</ele>
        <time>2014-02-24T13:18:45.042Z</time>
      </trkpt>
      <trkpt lat="48.58546" lon="-3.21255">
        <ele>214.9</ele>
        <time>2014-02-24T13:18:48.056Z</time>
      </trkpt>
      <trkpt lat="48.58548" lon="-3.21253">
        <ele>214.5</ele>
        <time>2014-02-24T13:18:49.026Z</time>
      </trkpt>
      <trkpt lat="48.58556" lon="-3.21251">
        <ele>213</ele>
        <time>2014-02-24T13:18:57.075Z</time>
      </trkpt>
      <trkpt lat="48.58558" lon="-3.21251">
        <ele>213.1</ele>
        <time>2014-02-24T13:18:58.037Z</time>
      </trkpt>
      <trkpt lat="48.58565" lon="-3.21248">
        <ele>214.8</ele>
        <time>2014-02-24T13:19:04.057Z</time>
      </trkpt>
      <trkpt lat="48.58567" lon="-3.21247">
        <ele>214.9</ele>
        <time>2014-02-24T13:19:05.199Z</time>
      </trkpt>
      <trkpt lat="48.58574" lon="-3.21247">
        <ele>218.7</ele>
        <time>2014-02-24T13:19:18.219Z</time>
      </trkpt>
      <trkpt lat="48.58576" lon="-3.21248">
        <ele>216.4</ele>
        <time>2014-02-24T13:19:18.862Z</time>
      </trkpt>
      <trkpt lat="48.58584" lon="-3.21247">
        <ele>213.2</ele>
        <time>2014-02-24T13:19:24.926Z</time>
      </trkpt>
      <trkpt lat="48.58584" lon="-3.21244">
        <ele>212.9</ele>
        <time>2014-02-24T13:19:26.033Z</time>
      </trkpt>
      <trkpt lat="48.58592" lon="-3.21237">
        <ele>209</ele>
        <time>2014-02-24T13:19:33.969Z</time>
      </trkpt>
      <trkpt lat="48.58592" lon="-3.21236">
        <ele>209.4</ele>
        <time>2014-02-24T13:19:34.996Z</time>
      </trkpt>
      <trkpt lat="48.58593" lon="-3.21227">
        <ele>211</ele>
        <time>2014-02-24T13:19:44.899Z</time>
      </trkpt>
      <trkpt lat="48.5858" lon="-3.21218">
        <ele>225.4</ele>
        <time>2014-02-24T13:19:48.918Z</time>
      </trkpt>
      <trkpt lat="48.58587" lon="-3.21227">
        <ele>224.4</ele>
        <time>2014-02-24T13:19:49.829Z</time>
      </trkpt>
      <trkpt lat="48.5858" lon="-3.21227">
        <ele>219.1</ele>
        <time>2014-02-24T13:23:16.639Z</time>
      </trkpt>
      <trkpt lat="48.58578" lon="-3.21224">
        <ele>219.1</ele>
        <time>2014-02-24T13:23:17.799Z</time>
      </trkpt>
      <trkpt lat="48.58569" lon="-3.21225">
        <ele>213.5</ele>
        <time>2014-02-24T13:23:24.650Z</time>
      </trkpt>
      <trkpt lat="48.58569" lon="-3.21226">
        <ele>212.6</ele>
        <time>2014-02-24T13:23:25.655Z</time>
      </trkpt>
      <trkpt lat="48.58562" lon="-3.21231">
        <ele>209.1</ele>
        <time>2014-02-24T13:23:31.734Z</time>
      </trkpt>
      <trkpt lat="48.58561" lon="-3.21233">
        <ele>209.3</ele>
        <time>2014-02-24T13:23:32.681Z</time>
      </trkpt>
      <trkpt lat="48.58556" lon="-3.21241">
        <ele>206.6</ele>
        <time>2014-02-24T13:23:37.707Z</time>
      </trkpt>
      <trkpt lat="48.58555" lon="-3.21243">
        <ele>206</ele>
        <time>2014-02-24T13:23:38.756Z</time>
      </trkpt>
      <trkpt lat="48.5855" lon="-3.21251">
        <ele>205.1</ele>
        <time>2014-02-24T13:23:43.614Z</time>
      </trkpt>
      <trkpt lat="48.58548" lon="-3.21253">
        <ele>204.9</ele>
        <time>2014-02-24T13:23:44.807Z</time>
      </trkpt>
      <trkpt lat="48.58541" lon="-3.21261">
        <ele>208.4</ele>
        <time>2014-02-24T13:23:49.678Z</time>
      </trkpt>
      <trkpt lat="48.58539" lon="-3.21262">
        <ele>208.9</ele>
        <time>2014-02-24T13:23:50.669Z</time>
      </trkpt>
      <trkpt lat="48.58534" lon="-3.2127">
        <ele>209.2</ele>
        <time>2014-02-24T13:23:56.809Z</time>
      </trkpt>
      <trkpt lat="48.58535" lon="-3.21275">
        <ele>216.6</ele>
        <time>2014-02-24T13:23:57.745Z</time>
      </trkpt>
      <trkpt lat="48.5854" lon="-3.21286">
        <ele>215.7</ele>
        <time>2014-02-24T13:24:05.724Z</time>
      </trkpt>
      <trkpt lat="48.58541" lon="-3.21288">
        <ele>215.2</ele>
        <time>2014-02-24T13:24:06.694Z</time>
      </trkpt>
      <trkpt lat="48.58546" lon="-3.21296">
        <ele>217.5</ele>
        <time>2014-02-24T13:24:11.758Z</time>
      </trkpt>
      <trkpt lat="48.58547" lon="-3.21299">
        <ele>217.9</ele>
        <time>2014-02-24T13:24:12.684Z</time>
      </trkpt>
      <trkpt lat="48.58552" lon="-3.21309">
        <ele>213.1</ele>
        <time>2014-02-24T13:24:19.693Z</time>
      </trkpt>
      <trkpt lat="48.58553" lon="-3.2131">
        <ele>212.7</ele>
        <time>2014-02-24T13:24:20.744Z</time>
      </trkpt>
      <trkpt lat="48.5856" lon="-3.21318">
        <ele>208.7</ele>
        <time>2014-02-24T13:24:26.619Z</time>
      </trkpt>
      <trkpt lat="48.58561" lon="-3.21319">
        <ele>207.7</ele>
        <time>2014-02-24T13:24:27.719Z</time>
      </trkpt>
      <trkpt lat="48.58562" lon="-3.21331">
        <ele>209</ele>
        <time>2014-02-24T13:24:33.774Z</time>
      </trkpt>
      <trkpt lat="48.58563" lon="-3.21333">
        <ele>208.7</ele>
        <time>2014-02-24T13:24:34.599Z</time>
      </trkpt>
      <trkpt lat="48.58568" lon="-3.21343">
        <ele>207.7</ele>
        <time>2014-02-24T13:24:41.691Z</time>
      </trkpt>
      <trkpt lat="48.58568" lon="-3.21345">
        <ele>207.6</ele>
        <time>2014-02-24T13:24:42.787Z</time>
      </trkpt>
      <trkpt lat="48.58573" lon="-3.21354">
        <ele>209.1</ele>
        <time>2014-02-24T13:24:49.729Z</time>
      </trkpt>
      <trkpt lat="48.58574" lon="-3.21356">
        <ele>209.1</ele>
        <time>2014-02-24T13:24:50.765Z</time>
      </trkpt>
      <trkpt lat="48.58576" lon="-3.21368">
        <ele>209.5</ele>
        <time>2014-02-24T13:24:56.758Z</time>
      </trkpt>
      <trkpt lat="48.58577" lon="-3.21369">
        <ele>209.9</ele>
        <time>2014-02-24T13:24:57.786Z</time>
      </trkpt>
      <trkpt lat="48.58583" lon="-3.21379">
        <ele>208.4</ele>
        <time>2014-02-24T13:25:07.751Z</time>
      </trkpt>
      <trkpt lat="48.58583" lon="-3.2138">
        <ele>208.2</ele>
        <time>2014-02-24T13:25:08.751Z</time>
      </trkpt>
      <trkpt lat="48.58584" lon="-3.21392">
        <ele>208</ele>
        <time>2014-02-24T13:25:13.629Z</time>
      </trkpt>
      <trkpt lat="48.58586" lon="-3.21394">
        <ele>208.2</ele>
        <time>2014-02-24T13:25:14.732Z</time>
      </trkpt>
      <trkpt lat="48.5859" lon="-3.21405">
        <ele>210.6</ele>
        <time>2014-02-24T13:25:20.612Z</time>
      </trkpt>
      <trkpt lat="48.58591" lon="-3.21407">
        <ele>210.5</ele>
        <time>2014-02-24T13:25:21.871Z</time>
      </trkpt>
      <trkpt lat="48.58596" lon="-3.21415">
        <ele>212.6</ele>
        <time>2014-02-24T13:25:26.790Z</time>
      </trkpt>
      <trkpt lat="48.58598" lon="-3.21414">
        <ele>209.8</ele>
        <time>2014-02-24T13:25:27.715Z</time>
      </trkpt>
      <trkpt lat="48.58598" lon="-3.21427">
        <ele>221</ele>
        <time>2014-02-24T13:25:33.763Z</time>
      </trkpt>
      <trkpt lat="48.58598" lon="-3.21428">
        <ele>221.8</ele>
        <time>2014-02-24T13:25:34.740Z</time>
      </trkpt>
      <trkpt lat="48.586" lon="-3.21439">
        <ele>221.2</ele>
        <time>2014-02-24T13:25:44.738Z</time>
      </trkpt>
      <trkpt lat="48.58601" lon="-3.21441">
        <ele>220.8</ele>
        <time>2014-02-24T13:25:45.619Z</time>
      </trkpt>
      <trkpt lat="48.58601" lon="-3.21453">
        <ele>220</ele>
        <time>2014-02-24T13:25:51.749Z</time>
      </trkpt>
      <trkpt lat="48.58603" lon="-3.21456">
        <ele>219.4</ele>
        <time>2014-02-24T13:25:52.762Z</time>
      </trkpt>
      <trkpt lat="48.58609" lon="-3.21465">
        <ele>215.9</ele>
        <time>2014-02-24T13:25:59.755Z</time>
      </trkpt>
      <trkpt lat="48.58609" lon="-3.21468">
        <ele>214.8</ele>
        <time>2014-02-24T13:26:00.603Z</time>
      </trkpt>
      <trkpt lat="48.58611" lon="-3.21479">
        <ele>213.4</ele>
        <time>2014-02-24T13:26:09.719Z</time>
      </trkpt>
      <trkpt lat="48.58611" lon="-3.21481">
        <ele>213.4</ele>
        <time>2014-02-24T13:26:10.829Z</time>
      </trkpt>
      <trkpt lat="48.58613" lon="-3.21491">
        <ele>212.5</ele>
        <time>2014-02-24T13:26:15.754Z</time>
      </trkpt>
      <trkpt lat="48.58613" lon="-3.21494">
        <ele>212.4</ele>
        <time>2014-02-24T13:26:16.715Z</time>
      </trkpt>
      <trkpt lat="48.58614" lon="-3.21506">
        <ele>212.2</ele>
        <time>2014-02-24T13:26:22.602Z</time>
      </trkpt>
      <trkpt lat="48.58615" lon="-3.21508">
        <ele>213.3</ele>
        <time>2014-02-24T13:26:23.750Z</time>
      </trkpt>
      <trkpt lat="48.5862" lon="-3.21519">
        <ele>213.5</ele>
        <time>2014-02-24T13:26:29.742Z</time>
      </trkpt>
      <trkpt lat="48.58621" lon="-3.2152">
        <ele>212.7</ele>
        <time>2014-02-24T13:26:30.740Z</time>
      </trkpt>
      <trkpt lat="48.58629" lon="-3.21524">
        <ele>206.9</ele>
        <time>2014-02-24T13:26:36.709Z</time>
      </trkpt>
      <trkpt lat="48.58631" lon="-3.21525">
        <ele>207.3</ele>
        <time>2014-02-24T13:26:37.733Z</time>
      </trkpt>
      <trkpt lat="48.58639" lon="-3.21523">
        <ele>205.9</ele>
        <time>2014-02-24T13:27:11.040Z</time>
      </trkpt>
      <trkpt lat="48.58639" lon="-3.21522">
        <ele>205.9</ele>
        <time>2014-02-24T13:27:14.544Z</time>
      </trkpt>
      <trkpt lat="48.58647" lon="-3.21518">
        <ele>205.1</ele>
        <time>2014-02-24T13:27:21.160Z</time>
      </trkpt>
      <trkpt lat="48.58648" lon="-3.21517">
        <ele>207.3</ele>
        <time>2014-02-24T13:27:22.180Z</time>
      </trkpt>
      <trkpt lat="48.58655" lon="-3.21512">
        <ele>206.8</ele>
        <time>2014-02-24T13:27:28.831Z</time>
      </trkpt>
      <trkpt lat="48.58656" lon="-3.21511">
        <ele>206.9</ele>
        <time>2014-02-24T13:27:30.311Z</time>
      </trkpt>
      <trkpt lat="48.58661" lon="-3.21502">
        <ele>207.6</ele>
        <time>2014-02-24T13:27:37.945Z</time>
      </trkpt>
      <trkpt lat="48.58662" lon="-3.21501">
        <ele>208.5</ele>
        <time>2014-02-24T13:27:39.011Z</time>
      </trkpt>
      <trkpt lat="48.58668" lon="-3.21493">
        <ele>214.5</ele>
        <time>2014-02-24T13:27:49.660Z</time>
      </trkpt>
      <trkpt lat="48.58671" lon="-3.21493">
        <ele>213.2</ele>
        <time>2014-02-24T13:27:50.840Z</time>
      </trkpt>
      <trkpt lat="48.58678" lon="-3.21485">
        <ele>212.8</ele>
        <time>2014-02-24T13:27:59.327Z</time>
      </trkpt>
      <trkpt lat="48.58678" lon="-3.21484">
        <ele>212.6</ele>
        <time>2014-02-24T13:27:59.620Z</time>
      </trkpt>
      <trkpt lat="48.58686" lon="-3.2148">
        <ele>214.5</ele>
        <time>2014-02-24T13:28:04.778Z</time>
      </trkpt>
      <trkpt lat="48.58687" lon="-3.21479">
        <ele>216.3</ele>
        <time>2014-02-24T13:28:05.847Z</time>
      </trkpt>
      <trkpt lat="48.58694" lon="-3.21473">
        <ele>216.4</ele>
        <time>2014-02-24T13:28:12.679Z</time>
      </trkpt>
      <trkpt lat="48.58695" lon="-3.21472">
        <ele>217.3</ele>
        <time>2014-02-24T13:28:13.870Z</time>
      </trkpt>
      <trkpt lat="48.58701" lon="-3.21464">
        <ele>213.4</ele>
        <time>2014-02-24T13:28:48.143Z</time>
      </trkpt>
      <trkpt lat="48.58701" lon="-3.21461">
        <ele>211.2</ele>
        <time>2014-02-24T13:28:48.942Z</time>
      </trkpt>
      <trkpt lat="48.58706" lon="-3.21452">
        <ele>202.6</ele>
        <time>2014-02-24T13:28:57.005Z</time>
      </trkpt>
      <trkpt lat="48.58706" lon="-3.2145">
        <ele>201.9</ele>
        <time>2014-02-24T13:28:58.221Z</time>
      </trkpt>
      <trkpt lat="48.58711" lon="-3.21444">
        <ele>201</ele>
        <time>2014-02-24T13:29:05.092Z</time>
      </trkpt>
      <trkpt lat="48.58713" lon="-3.21442">
        <ele>200.4</ele>
        <time>2014-02-24T13:29:06.368Z</time>
      </trkpt>
      <trkpt lat="48.5872" lon="-3.21433">
        <ele>198.9</ele>
        <time>2014-02-24T13:29:13.851Z</time>
      </trkpt>
      <trkpt lat="48.58721" lon="-3.21432">
        <ele>199.2</ele>
        <time>2014-02-24T13:29:14.971Z</time>
      </trkpt>
      <trkpt lat="48.58727" lon="-3.21423">
        <ele>197.8</ele>
        <time>2014-02-24T13:29:23.742Z</time>
      </trkpt>
      <trkpt lat="48.58727" lon="-3.21422">
        <ele>197.9</ele>
        <time>2014-02-24T13:29:24.781Z</time>
      </trkpt>
      <trkpt lat="48.58733" lon="-3.21414">
        <ele>199.9</ele>
        <time>2014-02-24T13:29:35.903Z</time>
      </trkpt>
      <trkpt lat="48.58734" lon="-3.21409">
        <ele>197.6</ele>
        <time>2014-02-24T13:29:36.905Z</time>
      </trkpt>
      <trkpt lat="48.58741" lon="-3.21402">
        <ele>200.5</ele>
        <time>2014-02-24T13:29:44.873Z</time>
      </trkpt>
      <trkpt lat="48.58741" lon="-3.214">
        <ele>199.8</ele>
        <time>2014-02-24T13:29:45.957Z</time>
      </trkpt>
      <trkpt lat="48.58747" lon="-3.21392">
        <ele>200.6</ele>
        <time>2014-02-24T13:29:51.799Z</time>
      </trkpt>
      <trkpt lat="48.58747" lon="-3.2139">
        <ele>200.1</ele>
        <time>2014-02-24T13:29:52.729Z</time>
      </trkpt>
      <trkpt lat="48.58754" lon="-3.21381">
        <ele>195.2</ele>
        <time>2014-02-24T13:29:59.772Z</time>
      </trkpt>
      <trkpt lat="48.58755" lon="-3.2138">
        <ele>194.4</ele>
        <time>2014-02-24T13:30:00.622Z</time>
      </trkpt>
      <trkpt lat="48.5876" lon="-3.21371">
        <ele>191.5</ele>
        <time>2014-02-24T13:30:08.879Z</time>
      </trkpt>
      <trkpt lat="48.58761" lon="-3.2137">
        <ele>191.3</ele>
        <time>2014-02-24T13:30:09.624Z</time>
      </trkpt>
      <trkpt lat="48.58763" lon="-3.21358">
        <ele>190.2</ele>
        <time>2014-02-24T13:30:15.717Z</time>
      </trkpt>
      <trkpt lat="48.58763" lon="-3.21356">
        <ele>187.2</ele>
        <time>2014-02-24T13:30:16.793Z</time>
      </trkpt>
      <trkpt lat="48.5877" lon="-3.21351">
        <ele>187.7</ele>
        <time>2014-02-24T13:30:21.629Z</time>
      </trkpt>
      <trkpt lat="48.58771" lon="-3.2135">
        <ele>187.4</ele>
        <time>2014-02-24T13:30:22.793Z</time>
      </trkpt>
      <trkpt lat="48.58778" lon="-3.21344">
        <ele>186.2</ele>
        <time>2014-02-24T13:30:30.655Z</time>
      </trkpt>
      <trkpt lat="48.58779" lon="-3.21342">
        <ele>185.9</ele>
        <time>2014-02-24T13:30:31.738Z</time>
      </trkpt>
      <trkpt lat="48.58784" lon="-3.21332">
        <ele>184.3</ele>
        <time>2014-02-24T13:30:38.826Z</time>
      </trkpt>
      <trkpt lat="48.58784" lon="-3.2133">
        <ele>183.7</ele>
        <time>2014-02-24T13:30:39.797Z</time>
      </trkpt>
      <trkpt lat="48.58791" lon="-3.21324">
        <ele>187.5</ele>
        <time>2014-02-24T13:30:45.739Z</time>
      </trkpt>
      <trkpt lat="48.58792" lon="-3.21322">
        <ele>187.8</ele>
        <time>2014-02-24T13:30:46.589Z</time>
      </trkpt>
      <trkpt lat="48.58799" lon="-3.21314">
        <ele>192.5</ele>
        <time>2014-02-24T13:30:53.829Z</time>
      </trkpt>
      <trkpt lat="48.58801" lon="-3.21313">
        <ele>193.7</ele>
        <time>2014-02-24T13:30:54.589Z</time>
      </trkpt>
      <trkpt lat="48.58807" lon="-3.21303">
        <ele>193.7</ele>
        <time>2014-02-24T13:31:00.734Z</time>
      </trkpt>
      <trkpt lat="48.58807" lon="-3.21302">
        <ele>193.4</ele>
        <time>2014-02-24T13:31:01.630Z</time>
      </trkpt>
      <trkpt lat="48.58813" lon="-3.21295">
        <ele>195.4</ele>
        <time>2014-02-24T13:31:06.711Z</time>
      </trkpt>
      <trkpt lat="48.58815" lon="-3.21293">
        <ele>195.7</ele>
        <time>2014-02-24T13:31:07.780Z</time>
      </trkpt>
      <trkpt lat="48.58818" lon="-3.21283">
        <ele>195.2</ele>
        <time>2014-02-24T13:31:14.780Z</time>
      </trkpt>
      <trkpt lat="48.58819" lon="-3.21282">
        <ele>195.9</ele>
        <time>2014-02-24T13:31:15.783Z</time>
      </trkpt>
      <trkpt lat="48.58826" lon="-3.21275">
        <ele>195.6</ele>
        <time>2014-02-24T13:31:23.723Z</time>
      </trkpt>
      <trkpt lat="48.58827" lon="-3.21274">
        <ele>195.5</ele>
        <time>2014-02-24T13:31:24.740Z</time>
      </trkpt>
      <trkpt lat="48.58833" lon="-3.21264">
        <ele>196</ele>
        <time>2014-02-24T13:31:31.849Z</time>
      </trkpt>
      <trkpt lat="48.58833" lon="-3.21263">
        <ele>196.2</ele>
        <time>2014-02-24T13:31:32.736Z</time>
      </trkpt>
      <trkpt lat="48.5884" lon="-3.21255">
        <ele>201.5</ele>
        <time>2014-02-24T13:31:38.764Z</time>
      </trkpt>
      <trkpt lat="48.58842" lon="-3.21253">
        <ele>202.4</ele>
        <time>2014-02-24T13:31:39.703Z</time>
      </trkpt>
      <trkpt lat="48.58848" lon="-3.21247">
        <ele>204.3</ele>
        <time>2014-02-24T13:31:43.875Z</time>
      </trkpt>
      <trkpt lat="48.5885" lon="-3.21245">
        <ele>202.9</ele>
        <time>2014-02-24T13:31:44.757Z</time>
      </trkpt>
      <trkpt lat="48.58857" lon="-3.21237">
        <ele>200.2</ele>
        <time>2014-02-24T13:31:51.723Z</time>
      </trkpt>
      <trkpt lat="48.58858" lon="-3.21235">
        <ele>200.1</ele>
        <time>2014-02-24T13:31:52.828Z</time>
      </trkpt>
      <trkpt lat="48.58865" lon="-3.2123">
        <ele>200.3</ele>
        <time>2014-02-24T13:31:58.763Z</time>
      </trkpt>
      <trkpt lat="48.58866" lon="-3.21228">
        <ele>200.2</ele>
        <time>2014-02-24T13:31:59.869Z</time>
      </trkpt>
      <trkpt lat="48.58873" lon="-3.21221">
        <ele>194.3</ele>
        <time>2014-02-24T13:32:05.828Z</time>
      </trkpt>
      <trkpt lat="48.58873" lon="-3.21219">
        <ele>195</ele>
        <time>2014-02-24T13:32:06.869Z</time>
      </trkpt>
      <trkpt lat="48.58875" lon="-3.21209">
        <ele>207.1</ele>
        <time>2014-02-24T13:32:42.719Z</time>
      </trkpt>
      <trkpt lat="48.58872" lon="-3.21204">
        <ele>207.5</ele>
        <time>2014-02-24T13:32:43.973Z</time>
      </trkpt>
      <trkpt lat="48.58866" lon="-3.21194">
        <ele>209.9</ele>
        <time>2014-02-24T13:32:52.275Z</time>
      </trkpt>
      <trkpt lat="48.58865" lon="-3.21193">
        <ele>209.8</ele>
        <time>2014-02-24T13:32:53.021Z</time>
      </trkpt>
      <trkpt lat="48.58861" lon="-3.21185">
        <ele>209.4</ele>
        <time>2014-02-24T13:33:00.860Z</time>
      </trkpt>
      <trkpt lat="48.5886" lon="-3.21182">
        <ele>208.3</ele>
        <time>2014-02-24T13:33:01.620Z</time>
      </trkpt>
      <trkpt lat="48.58854" lon="-3.21172">
        <ele>206.8</ele>
        <time>2014-02-24T13:33:08.858Z</time>
      </trkpt>
      <trkpt lat="48.58853" lon="-3.21172">
        <ele>207.2</ele>
        <time>2014-02-24T13:33:09.852Z</time>
      </trkpt>
      <trkpt lat="48.58847" lon="-3.21161">
        <ele>207.9</ele>
        <time>2014-02-24T13:33:16.603Z</time>
      </trkpt>
      <trkpt lat="48.58847" lon="-3.2116">
        <ele>208.3</ele>
        <time>2014-02-24T13:33:17.831Z</time>
      </trkpt>
      <trkpt lat="48.5884" lon="-3.21152">
        <ele>211.3</ele>
        <time>2014-02-24T13:33:24.820Z</time>
      </trkpt>
      <trkpt lat="48.58839" lon="-3.2115">
        <ele>212</ele>
        <time>2014-02-24T13:33:25.807Z</time>
      </trkpt>
      <trkpt lat="48.58833" lon="-3.21142">
        <ele>212.4</ele>
        <time>2014-02-24T13:33:32.736Z</time>
      </trkpt>
      <trkpt lat="48.58832" lon="-3.2114">
        <ele>212.3</ele>
        <time>2014-02-24T13:33:33.731Z</time>
      </trkpt>
      <trkpt lat="48.58824" lon="-3.21134">
        <ele>211.2</ele>
        <time>2014-02-24T13:33:42.816Z</time>
      </trkpt>
      <trkpt lat="48.58823" lon="-3.21133">
        <ele>211.5</ele>
        <time>2014-02-24T13:33:43.827Z</time>
      </trkpt>
      <trkpt lat="48.58816" lon="-3.21128">
        <ele>211.7</ele>
        <time>2014-02-24T13:33:50.695Z</time>
      </trkpt>
      <trkpt lat="48.58815" lon="-3.21127">
        <ele>211.9</ele>
        <time>2014-02-24T13:33:51.636Z</time>
      </trkpt>
      <trkpt lat="48.58809" lon="-3.21118">
        <ele>212.6</ele>
        <time>2014-02-24T13:34:10.752Z</time>
      </trkpt>
      <trkpt lat="48.58808" lon="-3.21117">
        <ele>212.8</ele>
        <time>2014-02-24T13:34:11.610Z</time>
      </trkpt>
      <trkpt lat="48.58804" lon="-3.21107">
        <ele>213.7</ele>
        <time>2014-02-24T13:34:18.713Z</time>
      </trkpt>
      <trkpt lat="48.58803" lon="-3.21106">
        <ele>214.5</ele>
        <time>2014-02-24T13:34:19.745Z</time>
      </trkpt>
      <trkpt lat="48.58797" lon="-3.21099">
        <ele>213.4</ele>
        <time>2014-02-24T13:34:33.780Z</time>
      </trkpt>
      <trkpt lat="48.58795" lon="-3.21097">
        <ele>213</ele>
        <time>2014-02-24T13:34:34.759Z</time>
      </trkpt>
      <trkpt lat="48.5879" lon="-3.21087">
        <ele>211.6</ele>
        <time>2014-02-24T13:34:44.907Z</time>
      </trkpt>
      <trkpt lat="48.58788" lon="-3.21085">
        <ele>212.4</ele>
        <time>2014-02-24T13:34:45.634Z</time>
      </trkpt>
      <trkpt lat="48.58784" lon="-3.21073">
        <ele>216.8</ele>
        <time>2014-02-24T13:35:06.742Z</time>
      </trkpt>
      <trkpt lat="48.58783" lon="-3.21073">
        <ele>217.5</ele>
        <time>2014-02-24T13:35:07.795Z</time>
      </trkpt>
      <trkpt lat="48.58779" lon="-3.21061">
        <ele>215</ele>
        <time>2014-02-24T13:35:20.785Z</time>
      </trkpt>
      <trkpt lat="48.58777" lon="-3.21059">
        <ele>215.6</ele>
        <time>2014-02-24T13:35:21.768Z</time>
      </trkpt>
      <trkpt lat="48.58773" lon="-3.21048">
        <ele>216.3</ele>
        <time>2014-02-24T13:35:27.830Z</time>
      </trkpt>
      <trkpt lat="48.58772" lon="-3.21046">
        <ele>216.9</ele>
        <time>2014-02-24T13:35:28.619Z</time>
      </trkpt>
      <trkpt lat="48.58766" lon="-3.21038">
        <ele>217.5</ele>
        <time>2014-02-24T13:35:33.826Z</time>
      </trkpt>
      <trkpt lat="48.58765" lon="-3.21036">
        <ele>217.3</ele>
        <time>2014-02-24T13:35:34.806Z</time>
      </trkpt>
      <trkpt lat="48.5876" lon="-3.21025">
        <ele>217.2</ele>
        <time>2014-02-24T13:35:40.740Z</time>
      </trkpt>
      <trkpt lat="48.5876" lon="-3.21024">
        <ele>217.5</ele>
        <time>2014-02-24T13:35:41.609Z</time>
      </trkpt>
      <trkpt lat="48.58757" lon="-3.21011">
        <ele>212.9</ele>
        <time>2014-02-24T13:35:50.781Z</time>
      </trkpt>
      <trkpt lat="48.58757" lon="-3.2101">
        <ele>213</ele>
        <time>2014-02-24T13:35:51.709Z</time>
      </trkpt>
      <trkpt lat="48.58753" lon="-3.21">
        <ele>211.5</ele>
        <time>2014-02-24T13:35:58.492Z</time>
      </trkpt>
      <trkpt lat="48.58752" lon="-3.20995">
        <ele>209.2</ele>
        <time>2014-02-24T13:35:59.664Z</time>
      </trkpt>
      <trkpt lat="48.58747" lon="-3.20983">
        <ele>211.5</ele>
        <time>2014-02-24T13:36:09.762Z</time>
      </trkpt>
      <trkpt lat="48.58747" lon="-3.20982">
        <ele>210.9</ele>
        <time>2014-02-24T13:36:10.725Z</time>
      </trkpt>
      <trkpt lat="48.58743" lon="-3.20971">
        <ele>215.7</ele>
        <time>2014-02-24T13:36:14.690Z</time>
      </trkpt>
      <trkpt lat="48.58743" lon="-3.20969">
        <ele>216.4</ele>
        <time>2014-02-24T13:36:15.786Z</time>
      </trkpt>
      <trkpt lat="48.58737" lon="-3.20958">
        <ele>216.4</ele>
        <time>2014-02-24T13:36:25.235Z</time>
      </trkpt>
      <trkpt lat="48.58737" lon="-3.20957">
        <ele>215.7</ele>
        <time>2014-02-24T13:36:25.684Z</time>
      </trkpt>
      <trkpt lat="48.58731" lon="-3.20947">
        <ele>217.1</ele>
        <time>2014-02-24T13:36:34.722Z</time>
      </trkpt>
      <trkpt lat="48.58731" lon="-3.20946">
        <ele>216.9</ele>
        <time>2014-02-24T13:36:35.793Z</time>
      </trkpt>
      <trkpt lat="48.58728" lon="-3.20934">
        <ele>213.9</ele>
        <time>2014-02-24T13:36:46.696Z</time>
      </trkpt>
      <trkpt lat="48.58727" lon="-3.20933">
        <ele>213.6</ele>
        <time>2014-02-24T13:36:47.654Z</time>
      </trkpt>
      <trkpt lat="48.58723" lon="-3.20922">
        <ele>216.9</ele>
        <time>2014-02-24T13:36:54.589Z</time>
      </trkpt>
      <trkpt lat="48.58722" lon="-3.2092">
        <ele>217.1</ele>
        <time>2014-02-24T13:36:55.750Z</time>
      </trkpt>
      <trkpt lat="48.58717" lon="-3.2091">
        <ele>215.4</ele>
        <time>2014-02-24T13:37:04.779Z</time>
      </trkpt>
      <trkpt lat="48.58715" lon="-3.2091">
        <ele>215.7</ele>
        <time>2014-02-24T13:37:05.776Z</time>
      </trkpt>
      <trkpt lat="48.58715" lon="-3.20898">
        <ele>214.7</ele>
        <time>2014-02-24T13:37:13.784Z</time>
      </trkpt>
      <trkpt lat="48.58713" lon="-3.20897">
        <ele>214.8</ele>
        <time>2014-02-24T13:37:14.767Z</time>
      </trkpt>
      <trkpt lat="48.58707" lon="-3.20889">
        <ele>211.5</ele>
        <time>2014-02-24T13:37:22.690Z</time>
      </trkpt>
      <trkpt lat="48.58706" lon="-3.20887">
        <ele>211.5</ele>
        <time>2014-02-24T13:37:23.714Z</time>
      </trkpt>
      <trkpt lat="48.58702" lon="-3.20876">
        <ele>206.4</ele>
        <time>2014-02-24T13:37:32.758Z</time>
      </trkpt>
      <trkpt lat="48.58702" lon="-3.20874">
        <ele>207.3</ele>
        <time>2014-02-24T13:37:33.699Z</time>
      </trkpt>
      <trkpt lat="48.58698" lon="-3.20861">
        <ele>208.4</ele>
        <time>2014-02-24T13:37:42.752Z</time>
      </trkpt>
      <trkpt lat="48.58697" lon="-3.20859">
        <ele>208.8</ele>
        <time>2014-02-24T13:37:43.729Z</time>
      </trkpt>
      <trkpt lat="48.58695" lon="-3.20854">
        <ele>208.7</ele>
        <time>2014-02-24T13:37:46.598Z</time>
      </trkpt>
      <trkpt lat="48.58694" lon="-3.20845">
        <ele>212.7</ele>
        <time>2014-02-24T13:37:47.777Z</time>
      </trkpt>
      <trkpt lat="48.5869" lon="-3.20836">
        <ele>214.5</ele>
        <time>2014-02-24T13:37:54.781Z</time>
      </trkpt>
      <trkpt lat="48.58689" lon="-3.20832">
        <ele>216</ele>
        <time>2014-02-24T13:37:55.645Z</time>
      </trkpt>
      <trkpt lat="48.58686" lon="-3.20822">
        <ele>217</ele>
        <time>2014-02-24T13:38:01.719Z</time>
      </trkpt>
      <trkpt lat="48.58686" lon="-3.20819">
        <ele>218.1</ele>
        <time>2014-02-24T13:38:02.739Z</time>
      </trkpt>
      <trkpt lat="48.58681" lon="-3.20809">
        <ele>218.6</ele>
        <time>2014-02-24T13:38:10.769Z</time>
      </trkpt>
      <trkpt lat="48.58681" lon="-3.20808">
        <ele>218.9</ele>
        <time>2014-02-24T13:38:11.709Z</time>
      </trkpt>
      <trkpt lat="48.58677" lon="-3.20797">
        <ele>219.5</ele>
        <time>2014-02-24T13:38:17.775Z</time>
      </trkpt>
      <trkpt lat="48.58676" lon="-3.20794">
        <ele>220.4</ele>
        <time>2014-02-24T13:38:18.789Z</time>
      </trkpt>
      <trkpt lat="48.5867" lon="-3.20784">
        <ele>215.7</ele>
        <time>2014-02-24T13:38:28.733Z</time>
      </trkpt>
      <trkpt lat="48.5867" lon="-3.20782">
        <ele>216</ele>
        <time>2014-02-24T13:38:29.719Z</time>
      </trkpt>
      <trkpt lat="48.58663" lon="-3.20772">
        <ele>212.2</ele>
        <time>2014-02-24T13:38:40.766Z</time>
      </trkpt>
      <trkpt lat="48.58662" lon="-3.20771">
        <ele>211.8</ele>
        <time>2014-02-24T13:38:41.750Z</time>
      </trkpt>
      <trkpt lat="48.58658" lon="-3.20759">
        <ele>213.2</ele>
        <time>2014-02-24T13:38:47.748Z</time>
      </trkpt>
      <trkpt lat="48.58657" lon="-3.20759">
        <ele>212.2</ele>
        <time>2014-02-24T13:38:48.820Z</time>
      </trkpt>
      <trkpt lat="48.58653" lon="-3.20748">
        <ele>213.6</ele>
        <time>2014-02-24T13:38:53.815Z</time>
      </trkpt>
      <trkpt lat="48.58652" lon="-3.20745">
        <ele>215</ele>
        <time>2014-02-24T13:38:54.766Z</time>
      </trkpt>
      <trkpt lat="48.58647" lon="-3.20736">
        <ele>215.5</ele>
        <time>2014-02-24T13:39:00.704Z</time>
      </trkpt>
      <trkpt lat="48.58645" lon="-3.20731">
        <ele>216.8</ele>
        <time>2014-02-24T13:39:01.756Z</time>
      </trkpt>
      <trkpt lat="48.58639" lon="-3.20725">
        <ele>210.4</ele>
        <time>2014-02-24T13:39:11.759Z</time>
      </trkpt>
      <trkpt lat="48.58638" lon="-3.20723">
        <ele>210.3</ele>
        <time>2014-02-24T13:39:12.716Z</time>
      </trkpt>
      <trkpt lat="48.58631" lon="-3.20715">
        <ele>206.7</ele>
        <time>2014-02-24T13:39:20.767Z</time>
      </trkpt>
      <trkpt lat="48.5863" lon="-3.20714">
        <ele>206.8</ele>
        <time>2014-02-24T13:39:21.760Z</time>
      </trkpt>
      <trkpt lat="48.58625" lon="-3.20706">
        <ele>206.5</ele>
        <time>2014-02-24T13:39:27.743Z</time>
      </trkpt>
      <trkpt lat="48.58624" lon="-3.20703">
        <ele>207.2</ele>
        <time>2014-02-24T13:39:28.737Z</time>
      </trkpt>
      <trkpt lat="48.58619" lon="-3.20693">
        <ele>207.8</ele>
        <time>2014-02-24T13:39:34.634Z</time>
      </trkpt>
      <trkpt lat="48.58618" lon="-3.20692">
        <ele>207.5</ele>
        <time>2014-02-24T13:39:35.760Z</time>
      </trkpt>
      <trkpt lat="48.58611" lon="-3.20685">
        <ele>207.1</ele>
        <time>2014-02-24T13:39:42.619Z</time>
      </trkpt>
      <trkpt lat="48.5861" lon="-3.20684">
        <ele>207.4</ele>
        <time>2014-02-24T13:39:43.747Z</time>
      </trkpt>
      <trkpt lat="48.58606" lon="-3.20674">
        <ele>208.4</ele>
        <time>2014-02-24T13:39:49.609Z</time>
      </trkpt>
      <trkpt lat="48.58605" lon="-3.20672">
        <ele>208.8</ele>
        <time>2014-02-24T13:39:50.764Z</time>
      </trkpt>
      <trkpt lat="48.58599" lon="-3.20663">
        <ele>210.5</ele>
        <time>2014-02-24T13:39:56.729Z</time>
      </trkpt>
      <trkpt lat="48.58598" lon="-3.20661">
        <ele>210.7</ele>
        <time>2014-02-24T13:39:57.623Z</time>
      </trkpt>
      <trkpt lat="48.58594" lon="-3.2065">
        <ele>210</ele>
        <time>2014-02-24T13:40:04.701Z</time>
      </trkpt>
      <trkpt lat="48.58594" lon="-3.20649">
        <ele>209.9</ele>
        <time>2014-02-24T13:40:05.651Z</time>
      </trkpt>
      <trkpt lat="48.58588" lon="-3.2064">
        <ele>210.8</ele>
        <time>2014-02-24T13:40:11.751Z</time>
      </trkpt>
      <trkpt lat="48.58587" lon="-3.20638">
        <ele>211</ele>
        <time>2014-02-24T13:40:12.624Z</time>
      </trkpt>
      <trkpt lat="48.58581" lon="-3.20628">
        <ele>209.4</ele>
        <time>2014-02-24T13:40:20.700Z</time>
      </trkpt>
      <trkpt lat="48.5858" lon="-3.20627">
        <ele>209.2</ele>
        <time>2014-02-24T13:40:21.769Z</time>
      </trkpt>
      <trkpt lat="48.58575" lon="-3.20617">
        <ele>206.5</ele>
        <time>2014-02-24T13:40:32.786Z</time>
      </trkpt>
      <trkpt lat="48.58572" lon="-3.20615">
        <ele>207.3</ele>
        <time>2014-02-24T13:40:33.745Z</time>
      </trkpt>
      <trkpt lat="48.58566" lon="-3.20609">
        <ele>204.6</ele>
        <time>2014-02-24T13:40:40.604Z</time>
      </trkpt>
      <trkpt lat="48.58565" lon="-3.20608">
        <ele>204.7</ele>
        <time>2014-02-24T13:40:41.749Z</time>
      </trkpt>
      <trkpt lat="48.58558" lon="-3.206">
        <ele>206.2</ele>
        <time>2014-02-24T13:40:47.842Z</time>
      </trkpt>
      <trkpt lat="48.58557" lon="-3.20598">
        <ele>207.4</ele>
        <time>2014-02-24T13:40:48.707Z</time>
      </trkpt>
      <trkpt lat="48.58549" lon="-3.20594">
        <ele>206.4</ele>
        <time>2014-02-24T13:40:55.854Z</time>
      </trkpt>
      <trkpt lat="48.58548" lon="-3.20593">
        <ele>205.5</ele>
        <time>2014-02-24T13:40:56.806Z</time>
      </trkpt>
      <trkpt lat="48.5854" lon="-3.20588">
        <ele>208.3</ele>
        <time>2014-02-24T13:41:02.740Z</time>
      </trkpt>
      <trkpt lat="48.58539" lon="-3.20588">
        <ele>208.3</ele>
        <time>2014-02-24T13:41:03.724Z</time>
      </trkpt>
      <trkpt lat="48.58531" lon="-3.20581">
        <ele>211</ele>
        <time>2014-02-24T13:41:10.795Z</time>
      </trkpt>
      <trkpt lat="48.5853" lon="-3.20579">
        <ele>211.4</ele>
        <time>2014-02-24T13:41:11.609Z</time>
      </trkpt>
      <trkpt lat="48.58522" lon="-3.20574">
        <ele>211.1</ele>
        <time>2014-02-24T13:41:18.643Z</time>
      </trkpt>
      <trkpt lat="48.58521" lon="-3.20574">
        <ele>211.2</ele>
        <time>2014-02-24T13:41:19.755Z</time>
      </trkpt>
      <trkpt lat="48.58514" lon="-3.20567">
        <ele>211.6</ele>
        <time>2014-02-24T13:41:26.744Z</time>
      </trkpt>
      <trkpt lat="48.58513" lon="-3.20565">
        <ele>211.8</ele>
        <time>2014-02-24T13:41:27.611Z</time>
      </trkpt>
      <trkpt lat="48.58509" lon="-3.20555">
        <ele>213.8</ele>
        <time>2014-02-24T13:41:32.720Z</time>
      </trkpt>
      <trkpt lat="48.58507" lon="-3.20552">
        <ele>214.7</ele>
        <time>2014-02-24T13:41:33.590Z</time>
      </trkpt>
      <trkpt lat="48.585" lon="-3.20546">
        <ele>209.2</ele>
        <time>2014-02-24T13:41:44.590Z</time>
      </trkpt>
      <trkpt lat="48.58499" lon="-3.20545">
        <ele>209.7</ele>
        <time>2014-02-24T13:41:45.849Z</time>
      </trkpt>
      <trkpt lat="48.58492" lon="-3.20539">
        <ele>207.8</ele>
        <time>2014-02-24T13:41:52.775Z</time>
      </trkpt>
      <trkpt lat="48.58491" lon="-3.20537">
        <ele>207.7</ele>
        <time>2014-02-24T13:41:53.789Z</time>
      </trkpt>
      <trkpt lat="48.58483" lon="-3.20532">
        <ele>208.6</ele>
        <time>2014-02-24T13:42:00.691Z</time>
      </trkpt>
      <trkpt lat="48.58482" lon="-3.20533">
        <ele>208.5</ele>
        <time>2014-02-24T13:42:01.839Z</time>
      </trkpt>
      <trkpt lat="48.58474" lon="-3.20532">
        <ele>209.2</ele>
        <time>2014-02-24T13:42:12.780Z</time>
      </trkpt>
      <trkpt lat="48.58473" lon="-3.20534">
        <ele>208.3</ele>
        <time>2014-02-24T13:42:13.668Z</time>
      </trkpt>
      <trkpt lat="48.58464" lon="-3.20536">
        <ele>208.5</ele>
        <time>2014-02-24T13:42:29.719Z</time>
      </trkpt>
      <trkpt lat="48.58463" lon="-3.20537">
        <ele>208.5</ele>
        <time>2014-02-24T13:42:30.608Z</time>
      </trkpt>
      <trkpt lat="48.58455" lon="-3.20541">
        <ele>208.2</ele>
        <time>2014-02-24T13:42:43.771Z</time>
      </trkpt>
      <trkpt lat="48.58453" lon="-3.20541">
        <ele>209.2</ele>
        <time>2014-02-24T13:42:44.762Z</time>
      </trkpt>
      <trkpt lat="48.58444" lon="-3.20544">
        <ele>209.5</ele>
        <time>2014-02-24T13:43:01.787Z</time>
      </trkpt>
      <trkpt lat="48.58444" lon="-3.20544">
        <ele>210.5</ele>
        <time>2014-02-24T13:43:02.894Z</time>
      </trkpt>
      <trkpt lat="48.58436" lon="-3.2055">
        <ele>212.5</ele>
        <time>2014-02-24T13:43:12.629Z</time>
      </trkpt>
      <trkpt lat="48.58436" lon="-3.20551">
        <ele>212.1</ele>
        <time>2014-02-24T13:43:13.743Z</time>
      </trkpt>
      <trkpt lat="48.58428" lon="-3.20556">
        <ele>208.1</ele>
        <time>2014-02-24T13:43:27.600Z</time>
      </trkpt>
      <trkpt lat="48.58427" lon="-3.20557">
        <ele>208</ele>
        <time>2014-02-24T13:43:28.817Z</time>
      </trkpt>
      <trkpt lat="48.58419" lon="-3.20561">
        <ele>207.4</ele>
        <time>2014-02-24T13:43:38.683Z</time>
      </trkpt>
      <trkpt lat="48.58418" lon="-3.20561">
        <ele>207.7</ele>
        <time>2014-02-24T13:43:39.689Z</time>
      </trkpt>
      <trkpt lat="48.58411" lon="-3.20565">
        <ele>204.9</ele>
        <time>2014-02-24T13:43:51.788Z</time>
      </trkpt>
      <trkpt lat="48.58409" lon="-3.20565">
        <ele>203.9</ele>
        <time>2014-02-24T13:43:52.738Z</time>
      </trkpt>
      <trkpt lat="48.58402" lon="-3.2057">
        <ele>203.6</ele>
        <time>2014-02-24T13:44:01.709Z</time>
      </trkpt>
      <trkpt lat="48.58401" lon="-3.2057">
        <ele>203.6</ele>
        <time>2014-02-24T13:44:02.761Z</time>
      </trkpt>
      <trkpt lat="48.58393" lon="-3.20573">
        <ele>206.2</ele>
        <time>2014-02-24T13:44:10.762Z</time>
      </trkpt>
      <trkpt lat="48.58392" lon="-3.20573">
        <ele>206.5</ele>
        <time>2014-02-24T13:44:11.629Z</time>
      </trkpt>
      <trkpt lat="48.58383" lon="-3.2057">
        <ele>208.2</ele>
        <time>2014-02-24T13:44:19.731Z</time>
      </trkpt>
      <trkpt lat="48.58382" lon="-3.2057">
        <ele>208.4</ele>
        <time>2014-02-24T13:44:20.754Z</time>
      </trkpt>
      <trkpt lat="48.58374" lon="-3.20568">
        <ele>209.3</ele>
        <time>2014-02-24T13:44:26.704Z</time>
      </trkpt>
      <trkpt lat="48.58372" lon="-3.20568">
        <ele>209.9</ele>
        <time>2014-02-24T13:44:27.839Z</time>
      </trkpt>
      <trkpt lat="48.58364" lon="-3.20567">
        <ele>210</ele>
        <time>2014-02-24T13:44:44.675Z</time>
      </trkpt>
      <trkpt lat="48.58363" lon="-3.20567">
        <ele>210.3</ele>
        <time>2014-02-24T13:44:45.656Z</time>
      </trkpt>
      <trkpt lat="48.58356" lon="-3.20563">
        <ele>212.2</ele>
        <time>2014-02-24T13:44:56.791Z</time>
      </trkpt>
      <trkpt lat="48.58355" lon="-3.20563">
        <ele>212.6</ele>
        <time>2014-02-24T13:44:57.769Z</time>
      </trkpt>
      <trkpt lat="48.58346" lon="-3.20559">
        <ele>214.2</ele>
        <time>2014-02-24T13:45:12.697Z</time>
      </trkpt>
      <trkpt lat="48.58345" lon="-3.20558">
        <ele>214.7</ele>
        <time>2014-02-24T13:45:13.794Z</time>
      </trkpt>
      <trkpt lat="48.58338" lon="-3.20552">
        <ele>214.5</ele>
        <time>2014-02-24T13:45:23.890Z</time>
      </trkpt>
      <trkpt lat="48.58337" lon="-3.20551">
        <ele>214.4</ele>
        <time>2014-02-24T13:45:24.781Z</time>
      </trkpt>
      <trkpt lat="48.5833" lon="-3.20543">
        <ele>212.9</ele>
        <time>2014-02-24T13:45:35.679Z</time>
      </trkpt>
      <trkpt lat="48.58329" lon="-3.20542">
        <ele>212.7</ele>
        <time>2014-02-24T13:45:36.912Z</time>
      </trkpt>
      <trkpt lat="48.58323" lon="-3.20533">
        <ele>211.7</ele>
        <time>2014-02-24T13:45:44.675Z</time>
      </trkpt>
      <trkpt lat="48.58322" lon="-3.20534">
        <ele>211</ele>
        <time>2014-02-24T13:45:45.763Z</time>
      </trkpt>
      <trkpt lat="48.58314" lon="-3.20527">
        <ele>213</ele>
        <time>2014-02-24T13:45:54.844Z</time>
      </trkpt>
      <trkpt lat="48.58313" lon="-3.20526">
        <ele>213.5</ele>
        <time>2014-02-24T13:45:55.849Z</time>
      </trkpt>
      <trkpt lat="48.58306" lon="-3.20517">
        <ele>213.7</ele>
        <time>2014-02-24T13:46:03.720Z</time>
      </trkpt>
      <trkpt lat="48.58306" lon="-3.20517">
        <ele>213.6</ele>
        <time>2014-02-24T13:46:04.743Z</time>
      </trkpt>
      <trkpt lat="48.58299" lon="-3.2051">
        <ele>214.1</ele>
        <time>2014-02-24T13:46:11.743Z</time>
      </trkpt>
      <trkpt lat="48.58298" lon="-3.20508">
        <ele>214.2</ele>
        <time>2014-02-24T13:46:12.741Z</time>
      </trkpt>
      <trkpt lat="48.58291" lon="-3.20507">
        <ele>210.6</ele>
        <time>2014-02-24T13:46:19.644Z</time>
      </trkpt>
      <trkpt lat="48.58289" lon="-3.20503">
        <ele>210.9</ele>
        <time>2014-02-24T13:46:20.726Z</time>
      </trkpt>
      <trkpt lat="48.58284" lon="-3.20493">
        <ele>215.2</ele>
        <time>2014-02-24T13:46:24.788Z</time>
      </trkpt>
      <trkpt lat="48.58283" lon="-3.20492">
        <ele>215.2</ele>
        <time>2014-02-24T13:46:25.713Z</time>
      </trkpt>
      <trkpt lat="48.58275" lon="-3.20489">
        <ele>216.5</ele>
        <time>2014-02-24T13:46:33.762Z</time>
      </trkpt>
      <trkpt lat="48.58274" lon="-3.20488">
        <ele>216.9</ele>
        <time>2014-02-24T13:46:34.744Z</time>
      </trkpt>
      <trkpt lat="48.58265" lon="-3.20489">
        <ele>214.6</ele>
        <time>2014-02-24T13:46:42.802Z</time>
      </trkpt>
      <trkpt lat="48.58263" lon="-3.20488">
        <ele>214.3</ele>
        <time>2014-02-24T13:46:43.821Z</time>
      </trkpt>
      <trkpt lat="48.58256" lon="-3.20491">
        <ele>212.7</ele>
        <time>2014-02-24T13:46:49.688Z</time>
      </trkpt>
      <trkpt lat="48.58254" lon="-3.20491">
        <ele>213.7</ele>
        <time>2014-02-24T13:46:50.831Z</time>
      </trkpt>
      <trkpt lat="48.58246" lon="-3.2049">
        <ele>216.6</ele>
        <time>2014-02-24T13:46:58.722Z</time>
      </trkpt>
      <trkpt lat="48.58245" lon="-3.20489">
        <ele>216</ele>
        <time>2014-02-24T13:46:59.590Z</time>
      </trkpt>
      <trkpt lat="48.58238" lon="-3.20485">
        <ele>215.3</ele>
        <time>2014-02-24T13:47:03.712Z</time>
      </trkpt>
      <trkpt lat="48.58236" lon="-3.20483">
        <ele>214.3</ele>
        <time>2014-02-24T13:47:04.669Z</time>
      </trkpt>
      <trkpt lat="48.58228" lon="-3.2048">
        <ele>213.4</ele>
        <time>2014-02-24T13:47:08.629Z</time>
      </trkpt>
      <trkpt lat="48.58226" lon="-3.20481">
        <ele>213.7</ele>
        <time>2014-02-24T13:47:09.677Z</time>
      </trkpt>
      <trkpt lat="48.58224" lon="-3.20493">
        <ele>213.5</ele>
        <time>2014-02-24T13:47:18.619Z</time>
      </trkpt>
      <trkpt lat="48.58223" lon="-3.20496">
        <ele>213.4</ele>
        <time>2014-02-24T13:47:19.664Z</time>
      </trkpt>
      <trkpt lat="48.58221" lon="-3.20507">
        <ele>212.4</ele>
        <time>2014-02-24T13:47:27.723Z</time>
      </trkpt>
      <trkpt lat="48.5822" lon="-3.20509">
        <ele>211.9</ele>
        <time>2014-02-24T13:47:28.683Z</time>
      </trkpt>
      <trkpt lat="48.5822" lon="-3.20523">
        <ele>209.9</ele>
        <time>2014-02-24T13:47:35.732Z</time>
      </trkpt>
      <trkpt lat="48.58219" lon="-3.20525">
        <ele>210.1</ele>
        <time>2014-02-24T13:47:36.709Z</time>
      </trkpt>
      <trkpt lat="48.58216" lon="-3.20536">
        <ele>209.4</ele>
        <time>2014-02-24T13:47:43.722Z</time>
      </trkpt>
      <trkpt lat="48.58216" lon="-3.20538">
        <ele>209.6</ele>
        <time>2014-02-24T13:47:44.750Z</time>
      </trkpt>
      <trkpt lat="48.58218" lon="-3.2055">
        <ele>210.2</ele>
        <time>2014-02-24T13:47:51.715Z</time>
      </trkpt>
      <trkpt lat="48.58219" lon="-3.20551">
        <ele>210.3</ele>
        <time>2014-02-24T13:47:52.669Z</time>
      </trkpt>
      <trkpt lat="48.58226" lon="-3.20558">
        <ele>211.9</ele>
        <time>2014-02-24T13:48:02.780Z</time>
      </trkpt>
      <trkpt lat="48.58227" lon="-3.2056">
        <ele>212.3</ele>
        <time>2014-02-24T13:48:03.701Z</time>
      </trkpt>
      <trkpt lat="48.58234" lon="-3.20566">
        <ele>211.8</ele>
        <time>2014-02-24T13:48:11.687Z</time>
      </trkpt>
      <trkpt lat="48.58235" lon="-3.20567">
        <ele>211.8</ele>
        <time>2014-02-24T13:48:12.760Z</time>
      </trkpt>
      <trkpt lat="48.58241" lon="-3.20576">
        <ele>212.7</ele>
        <time>2014-02-24T13:48:19.936Z</time>
      </trkpt>
      <trkpt lat="48.58242" lon="-3.20577">
        <ele>213.3</ele>
        <time>2014-02-24T13:48:20.768Z</time>
      </trkpt>
      <trkpt lat="48.58248" lon="-3.20585">
        <ele>214.1</ele>
        <time>2014-02-24T13:48:31.246Z</time>
      </trkpt>
      <trkpt lat="48.5825" lon="-3.20586">
        <ele>216.3</ele>
        <time>2014-02-24T13:48:33.171Z</time>
      </trkpt>
      <trkpt lat="48.58249" lon="-3.20586">
        <ele>215.7</ele>
        <time>2014-02-24T13:48:51.796Z</time>
      </trkpt>
    </trkseg>
  </trk>
</gpx>